Share

Toyama Airport, Japan

Toyama (RJNT) Elev 89 ft | 36.65 °N, 137.19 °E | Change Station

Current weather conditions updated 13 minutes ago

Light Rain Showers
Light Showers Rain
55 °F
Feels Like 55 °F
N
4
Wind Variable Wind from ENE
Sunrise 5:10 AM
Sunset 6:30 PM
Moon Waning Gibbous

Today is forecast to be nearly the same temperature as yesterday.

Pressure 29.89 in
Visibility -9999.0 miles
Clouds Few 500 ft
Scattered Clouds 800 ft
Mostly Cloudy 1500 ft
Dew Point 54 °F
Humidity 94%
Rainfall 0.00 in
Snow Depth Not available.
UV 2 out of 16
Pollen Not available.
Air Quality Not available.
Flu Activity Not available.
SPECI RJNT 210645Z 07003KT 020V100 3200 -SHRA FEW005 SCT008 BKN015 13/12 Q1012 RMK 1CU005 4CU008 7CU015 A2989

More Conditions Fewer Conditions

Pressure 29.89 in
Visibility -9999.0 miles
Clouds Few 500 ft
Scattered Clouds 800 ft
Mostly Cloudy 1500 ft
Dew Point 54 °F
Humidity 94%
Rainfall 0.00 in
Snow Depth Not available.
UV 2 out of 16
Pollen Not available.
Air Quality Not available.
Flu Activity Not available.
SPECI RJNT 210645Z 07003KT 020V100 3200 -SHRA FEW005 SCT008 BKN015 13/12 Q1012 RMK 1CU005 4CU008 7CU015 A2989

More Conditions Fewer Conditions

10-Day Weather Forecast

Almanac

Astronomy

Apr. 21, 2014 Rise Set
Actual Time 5:10 AM JST 6:30 PM JST
Civil Twilight 4:43 AM JST 6:57 PM JST
Nautical Twilight 4:11 AM JST 7:29 PM JST
Astronomical Twilight 3:37 AM JST 8:03 PM JST
Moon No Moon Rise 9:57 AM JST
Length of Visible Light 14h 14m
Length of Day
13h 20m
Tomorrow will be 2m 8s longer.
Waning Gibbous, 62% of the Moon is Illuminated
Today
Waning Gibbous
Apr 22
Last Quarter
Apr 29
New
May 6
First Quarter
May 14
Full

Yesterday's Extremes

Country Highs Country Lows

Community

  • Snowy Robin
    Snowy Robin
  • Sun Pillar and Geese
    Sun Pillar and Geese
  • Showers on the Way
    Showers on the Way
  • Easter Morning Fog
    Easter Morning Fog
  • Easter Dance
    Easter Dance

WunderPhotos

Upload Photos

1,703,570 photos uploaded!

WunderBlogs® & News

Nearby

Snow Depth

Not available.

Coastal Water Temperatures

Place Temperature
No Stations Reporting

Earthquake Activity

City Distance Mag. Time & Date
No recent earthquake activity has been reported nearby.
Minimum magnitude displayed is 2.5.

Nearby Weather Stations

Station Location Temp. Dew Point Humidity Wind Precip. Elev Updated Type
JR9MAR-WX, TONAMI 57.0 °F 57 °F 99% North  at  0.0 mph 0.09 in / hr 325 ft 3:58 PM JST Rapid Fire
JR9MAR-WX, TONAMI 56.5 °F 56 °F 99% North  at  0.0 mph 0.09 in / hr 325 ft 3:58 PM JST Rapid Fire

Show More Stations Show Fewer Stations

What do you think?

We're not finished. Please let us know what you like, what you don't like, and what you are still missing.